createdAt,value
2018-01-22T00:00:20.939Z,22.55
2018-01-22T00:02:48.447Z,24.02
2018-01-22T00:05:16.046Z,22.77
2018-01-22T00:07:43.569Z,21.25
2018-01-22T00:10:11.115Z,20.15
2018-01-22T00:12:38.637Z,16.52
2018-01-22T00:15:06.210Z,19.15
2018-01-22T00:17:33.807Z,24.55
2018-01-22T00:20:01.359Z,18.30
2018-01-22T00:22:28.883Z,19.80
2018-01-22T00:24:56.455Z,17.45
2018-01-22T00:27:24.725Z,16.95
2018-01-22T00:29:52.307Z,18.75
2018-01-22T00:32:20.235Z,25.12
2018-01-22T00:34:48.668Z,15.25
2018-01-22T00:37:16.215Z,19.35
2018-01-22T00:39:43.746Z,16.42
2018-01-22T00:42:11.263Z,16.77
2018-01-22T00:44:38.807Z,13.05
2018-01-22T00:47:06.337Z,14.55
2018-01-22T00:49:34.653Z,19.42
2018-01-22T00:52:02.199Z,14.20
2018-01-22T00:54:29.737Z,19.95
2018-01-22T00:56:58.023Z,12.65
2018-01-22T00:59:25.598Z,11.88
2018-01-22T01:01:53.150Z,16.73
2018-01-22T01:04:20.702Z,15.55
2018-01-22T01:06:48.265Z,14.30
2018-01-22T01:09:15.811Z,13.52
2018-01-22T01:11:44.103Z,10.50
2018-01-22T01:14:15.419Z,16.40
2018-01-22T01:16:42.979Z,13.77
2018-01-22T01:19:11.282Z,12.15
2018-01-22T01:21:43.668Z,13.13
2018-01-22T01:24:11.212Z,12.55
2018-01-22T01:26:38.764Z,17.25
2018-01-22T01:29:07.092Z,14.95
2018-01-22T01:31:34.611Z,14.52
2018-01-22T01:34:02.163Z,9.82
2018-01-22T01:36:29.698Z,11.80
2018-01-22T01:38:57.236Z,11.60
2018-01-22T01:41:24.843Z,13.82
2018-01-22T01:43:52.391Z,14.95
2018-01-22T01:46:20.675Z,10.75
2018-01-22T01:49:00.899Z,12.10
2018-01-22T01:51:28.408Z,10.55
2018-01-22T01:53:55.954Z,12.70
2018-01-22T01:56:23.459Z,13.07
2018-01-22T01:58:51.016Z,14.35
2018-01-22T02:01:18.534Z,12.18
2018-01-22T02:03:46.137Z,11.50
2018-01-22T02:06:13.650Z,11.45
2018-01-22T02:08:41.216Z,12.63
2018-01-22T02:11:08.719Z,13.62
2018-01-22T02:13:36.327Z,12.25
2018-01-22T02:16:03.820Z,11.68
2018-01-22T02:18:31.450Z,12.98
2018-01-22T02:20:58.969Z,10.82
2018-01-22T02:23:26.491Z,9.90
2018-01-22T02:25:53.991Z,12.50
2018-01-22T02:28:22.383Z,11.40
2018-01-22T02:30:50.799Z,8.63
2018-01-22T02:33:18.322Z,11.30
2018-01-22T02:35:46.629Z,11.20
2018-01-22T02:38:14.187Z,9.77
2018-01-22T02:40:41.771Z,11.18
2018-01-22T02:43:09.263Z,13.00
2018-01-22T02:45:36.784Z,10.07
2018-01-22T02:48:04.404Z,8.18
2018-01-22T02:50:31.947Z,8.57
2018-01-22T02:52:59.471Z,8.65
2018-01-22T02:55:27.056Z,8.35
2018-01-22T02:57:54.661Z,8.48
2018-01-22T03:00:22.187Z,11.27
2018-01-22T03:02:50.455Z,8.85
2018-01-22T03:05:17.996Z,6.93
2018-01-22T03:07:45.500Z,8.77
2018-01-22T03:10:13.120Z,5.78
2018-01-22T03:12:40.720Z,9.25
2018-01-22T03:15:08.265Z,8.18
2018-01-22T03:17:36.669Z,11.15
2018-01-22T03:20:04.181Z,6.00
2018-01-22T03:22:31.700Z,5.40
2018-01-22T03:24:59.268Z,8.68
2018-01-22T03:27:26.803Z,6.90
2018-01-22T03:29:54.409Z,7.07
2018-01-22T03:32:21.942Z,6.05
2018-01-22T03:34:49.570Z,5.82
2018-01-22T03:37:17.085Z,6.22
2018-01-22T03:39:44.623Z,5.60
2018-01-22T03:42:12.127Z,5.47
2018-01-22T03:44:40.426Z,6.62
2018-01-22T03:47:08.023Z,5.47
2018-01-22T03:49:35.534Z,6.30
2018-01-22T03:52:03.796Z,4.37
2018-01-22T03:54:31.499Z,3.78
2018-01-22T03:56:59.027Z,5.40
2018-01-22T03:59:27.326Z,4.80
2018-01-22T04:01:54.838Z,5.45
2018-01-22T04:04:22.390Z,4.90
2018-01-22T04:06:50.014Z,3.60
2018-01-22T04:09:17.535Z,4.55
2018-01-22T04:11:45.817Z,4.70
2018-01-22T04:14:14.162Z,4.90
2018-01-22T04:16:41.674Z,6.32
2018-01-22T04:19:09.204Z,3.92
2018-01-22T04:21:36.717Z,4.70
2018-01-22T04:24:04.365Z,4.70
2018-01-22T04:26:31.916Z,4.05
2018-01-22T04:28:59.442Z,4.80
2018-01-22T04:31:27.714Z,4.05
2018-01-22T04:33:55.230Z,4.85
2018-01-22T04:36:22.773Z,3.87
2018-01-22T04:38:50.447Z,4.20
2018-01-22T04:41:17.966Z,3.47
2018-01-22T04:43:46.266Z,3.92
2018-01-22T04:46:13.777Z,8.55
2018-01-22T04:48:41.345Z,3.50
2018-01-22T04:51:08.851Z,4.18
2018-01-22T04:53:36.386Z,4.85
2018-01-22T04:56:04.926Z,3.95
2018-01-22T04:58:32.446Z,4.50
2018-01-22T05:00:59.967Z,4.40
2018-01-22T05:03:27.485Z,3.67
2018-01-22T05:05:55.063Z,3.50
2018-01-22T05:08:22.603Z,4.87
2018-01-22T05:10:50.150Z,7.43
2018-01-22T05:13:17.692Z,7.22
2018-01-22T05:15:45.219Z,4.12
2018-01-22T05:18:12.759Z,4.47
2018-01-22T05:20:40.254Z,3.42
2018-01-22T05:23:08.639Z,3.72
2018-01-22T05:25:36.192Z,4.93
2018-01-22T05:28:04.495Z,4.30
2018-01-22T05:30:32.096Z,3.87
2018-01-22T05:33:00.515Z,3.92
2018-01-22T05:35:39.668Z,4.45
2018-01-22T05:38:07.191Z,4.15
2018-01-22T05:40:35.479Z,3.17
2018-01-22T05:43:03.025Z,4.10
2018-01-22T05:45:31.332Z,3.40
2018-01-22T05:47:58.832Z,4.05
2018-01-22T05:50:26.460Z,2.78
2018-01-22T05:52:53.963Z,3.55
2018-01-22T05:55:21.495Z,5.10
2018-01-22T05:57:48.999Z,3.42
2018-01-22T06:00:17.322Z,2.90
2018-01-22T06:02:44.850Z,3.35
2018-01-22T06:05:12.516Z,9.30
2018-01-22T06:07:40.031Z,4.97
2018-01-22T06:10:07.589Z,3.92
2018-01-22T06:12:35.251Z,4.43
2018-01-22T06:15:02.780Z,3.72
2018-01-22T06:17:30.304Z,5.68
2018-01-22T06:19:57.827Z,4.05
2018-01-22T06:22:25.339Z,3.72
2018-01-22T06:24:52.899Z,5.10
2018-01-22T06:27:20.498Z,4.82
2018-01-22T06:29:48.039Z,6.30
2018-01-22T06:32:15.585Z,3.92
2018-01-22T06:34:43.123Z,4.95
2018-01-22T06:37:10.667Z,3.50
2018-01-22T06:39:38.180Z,3.50
2018-01-22T06:42:06.027Z,4.15
2018-01-22T06:44:33.563Z,4.05
2018-01-22T06:47:01.131Z,7.60
2018-01-22T06:49:28.684Z,5.30
2018-01-22T06:51:56.190Z,4.57
2018-01-22T06:54:23.741Z,5.05
2018-01-22T06:56:51.269Z,5.55
2018-01-22T06:59:18.816Z,6.35
2018-01-22T07:01:47.106Z,6.25
2018-01-22T07:04:14.758Z,5.93
2018-01-22T07:06:42.288Z,6.00
2018-01-22T07:09:09.812Z,11.52
2018-01-22T07:11:37.327Z,4.68
2018-01-22T07:14:04.882Z,7.40
2018-01-22T07:16:33.222Z,6.45
2018-01-22T07:19:00.748Z,5.05
2018-01-22T07:21:28.249Z,7.28
2018-01-22T07:23:55.811Z,6.43
2018-01-22T07:26:23.406Z,8.55
2018-01-22T07:28:51.710Z,7.97
2018-01-22T07:31:19.220Z,7.35
2018-01-22T07:33:47.503Z,7.07
2018-01-22T07:36:15.793Z,11.77
2018-01-22T07:38:43.335Z,8.73
2018-01-22T07:41:11.653Z,9.57
2018-01-22T07:43:39.192Z,8.65
2018-01-22T07:46:06.726Z,12.93
2018-01-22T07:48:35.042Z,10.40
2018-01-22T07:51:02.617Z,8.23
2018-01-22T07:53:30.159Z,9.30
2018-01-22T07:55:57.670Z,9.93
2018-01-22T07:58:25.484Z,9.05
2018-01-22T08:00:53.041Z,10.40
2018-01-22T08:03:20.563Z,9.70
2018-01-22T08:05:48.875Z,8.52
2018-01-22T08:08:16.400Z,9.88
2018-01-22T08:10:44.670Z,8.60
2018-01-22T08:13:12.974Z,10.95
2018-01-22T08:15:40.493Z,10.05
2018-01-22T08:18:08.019Z,8.27
2018-01-22T08:20:35.563Z,9.05
2018-01-22T08:23:03.111Z,9.43
2018-01-22T08:25:30.610Z,9.77
2018-01-22T08:27:58.159Z,10.50
2018-01-22T08:30:29.298Z,15.07
2018-01-22T08:32:56.823Z,9.98
2018-01-22T08:35:24.327Z,11.12
2018-01-22T08:37:51.887Z,9.80
2018-01-22T08:40:19.390Z,10.95
2018-01-22T08:42:47.794Z,8.88
2018-01-22T08:45:15.331Z,9.98
2018-01-22T08:47:43.616Z,10.35
2018-01-22T08:50:11.891Z,9.63
2018-01-22T08:52:39.419Z,8.82
2018-01-22T08:55:06.932Z,10.25
2018-01-22T08:57:34.511Z,11.85
2018-01-22T09:00:02.044Z,13.23
2018-01-22T09:02:29.629Z,11.38
2018-01-22T09:04:57.144Z,14.68
2018-01-22T09:07:25.583Z,12.30
2018-01-22T09:09:53.128Z,14.23
2018-01-22T09:12:20.673Z,14.50
2018-01-22T09:14:58.291Z,16.33
2018-01-22T09:17:25.812Z,17.60
2018-01-22T09:19:53.372Z,14.65
2018-01-22T09:22:20.868Z,13.05
2018-01-22T09:24:48.503Z,16.12
2018-01-22T09:27:16.107Z,14.32
2018-01-22T09:29:43.638Z,17.90
2018-01-22T09:32:11.182Z,20.20
2018-01-22T09:34:38.734Z,13.45
2018-01-22T09:37:06.293Z,15.32
2018-01-22T09:39:33.868Z,13.50
2018-01-22T09:42:01.415Z,13.73
2018-01-22T09:44:29.075Z,13.62
2018-01-22T09:46:56.630Z,12.93
2018-01-22T09:49:24.134Z,17.05
2018-01-22T09:51:51.683Z,16.27
2018-01-22T09:54:19.207Z,15.20
2018-01-22T09:56:46.782Z,16.27
2018-01-22T09:59:14.402Z,14.43
2018-01-22T10:01:42.710Z,16.87
2018-01-22T10:04:10.252Z,14.30
2018-01-22T10:06:37.824Z,17.33
2018-01-22T10:09:05.315Z,17.65
2018-01-22T10:11:32.866Z,14.75
2018-01-22T10:14:01.198Z,16.00
2018-01-22T10:16:28.781Z,26.12
2018-01-22T10:18:56.320Z,16.20
2018-01-22T10:21:23.857Z,14.00
2018-01-22T10:23:51.378Z,18.33
2018-01-22T10:26:18.922Z,16.08
2018-01-22T10:28:46.460Z,14.32
2018-01-22T10:31:14.128Z,16.02
2018-01-22T10:33:41.631Z,27.15
2018-01-22T10:36:09.226Z,20.33
2018-01-22T10:38:37.508Z,16.48
2018-01-22T10:41:05.830Z,20.40
2018-01-22T10:43:33.344Z,25.33
2018-01-22T10:46:01.651Z,19.17
2018-01-22T10:48:29.210Z,23.45
2018-01-22T10:50:56.752Z,16.80
2018-01-22T10:53:24.300Z,16.35
2018-01-22T10:55:51.832Z,20.52
2018-01-22T10:58:20.903Z,17.37
2018-01-22T11:00:48.515Z,19.05
2018-01-22T11:03:16.063Z,17.80
2018-01-22T11:05:44.346Z,21.50
2018-01-22T11:08:12.694Z,15.30
2018-01-22T11:10:40.308Z,25.70
2018-01-22T11:13:07.858Z,17.83
2018-01-22T11:15:41.018Z,20.95
2018-01-22T11:18:09.421Z,25.35
2018-01-22T11:20:36.967Z,19.08
2018-01-22T11:23:05.303Z,20.88
2018-01-22T11:25:32.828Z,23.77
2018-01-22T11:28:00.356Z,23.27
2018-01-22T11:30:28.630Z,23.25
2018-01-22T11:32:56.173Z,22.25
2018-01-22T11:35:23.779Z,17.98
2018-01-22T11:37:51.320Z,23.50
2018-01-22T11:40:19.674Z,23.42
2018-01-22T11:42:47.231Z,23.65
2018-01-22T11:45:14.736Z,18.87
2018-01-22T11:47:42.305Z,20.75
2018-01-22T11:50:09.871Z,19.52
2018-01-22T11:52:37.394Z,18.92
2018-01-22T11:55:05.684Z,16.90
2018-01-22T11:57:33.220Z,19.08
2018-01-22T12:00:01.528Z,17.48
2018-01-22T12:02:29.063Z,21.02
2018-01-22T12:04:59.184Z,14.73
2018-01-22T12:07:27.478Z,14.87
2018-01-22T12:09:54.996Z,23.70
2018-01-22T12:12:22.527Z,13.98
2018-01-22T12:14:50.065Z,13.32
2018-01-22T12:17:17.587Z,16.23
2018-01-22T12:19:45.898Z,14.57
2018-01-22T12:22:13.510Z,20.37
2018-01-22T12:24:41.022Z,21.83
2018-01-22T12:27:08.605Z,20.67
2018-01-22T12:29:36.851Z,17.92
2018-01-22T12:32:04.416Z,17.12
2018-01-22T12:34:31.982Z,16.48
2018-01-22T12:36:59.532Z,18.08
2018-01-22T12:39:30.946Z,12.93
2018-01-22T12:41:59.322Z,19.95
2018-01-22T12:44:27.603Z,20.37
2018-01-22T12:46:56.019Z,19.67
2018-01-22T12:49:23.532Z,16.62
2018-01-22T12:51:51.070Z,20.55
2018-01-22T12:54:18.597Z,22.20
2018-01-22T12:56:46.276Z,22.52
2018-01-22T12:59:13.803Z,25.58
2018-01-22T13:01:41.347Z,22.58
2018-01-22T13:04:09.626Z,28.62
2018-01-22T13:06:38.146Z,19.92
2018-01-22T13:09:05.672Z,20.37
2018-01-22T13:11:34.007Z,20.40
2018-01-22T13:14:01.571Z,21.73
2018-01-22T13:16:29.160Z,20.90
2018-01-22T13:18:57.502Z,27.92
2018-01-22T13:21:25.066Z,32.97
2018-01-22T13:23:52.588Z,27.02
2018-01-22T13:26:20.128Z,22.42
2018-01-22T13:28:47.659Z,25.65
2018-01-22T13:31:15.977Z,24.85
2018-01-22T13:33:43.487Z,27.58
2018-01-22T13:36:12.283Z,21.80
2018-01-22T13:38:40.586Z,18.08
2018-01-22T13:41:13.122Z,20.00
2018-01-22T13:43:40.663Z,23.15
2018-01-22T13:46:08.223Z,22.92
2018-01-22T13:48:35.761Z,26.85
2018-01-22T13:51:03.298Z,30.48
2018-01-22T13:53:30.799Z,23.17
2018-01-22T13:55:58.356Z,23.77
2018-01-22T13:58:25.859Z,25.05
2018-01-22T14:00:54.169Z,19.87
2018-01-22T14:03:21.711Z,15.80
2018-01-22T14:05:49.262Z,16.08
2018-01-22T14:08:16.790Z,18.17
2018-01-22T14:10:44.302Z,20.55
2018-01-22T14:13:11.857Z,18.58
2018-01-22T14:15:39.398Z,18.90
2018-01-22T14:18:06.916Z,17.42
2018-01-22T14:20:34.522Z,18.65
2018-01-22T14:23:02.033Z,18.02
2018-01-22T14:25:29.571Z,21.65
2018-01-22T14:27:57.098Z,17.20
2018-01-22T14:30:25.397Z,13.55
2018-01-22T14:32:52.946Z,16.45
2018-01-22T14:35:20.496Z,17.77
2018-01-22T14:37:48.007Z,23.30
2018-01-22T14:40:15.565Z,16.30
2018-01-22T14:42:43.069Z,22.83
2018-01-22T14:45:10.728Z,19.50
2018-01-22T14:47:38.272Z,22.98
2018-01-22T14:50:06.564Z,18.40
2018-01-22T14:52:34.083Z,18.65
2018-01-22T14:55:01.640Z,21.62
2018-01-22T14:57:29.198Z,23.67
2018-01-22T14:59:56.746Z,14.23
2018-01-22T15:02:24.257Z,24.95
2018-01-22T15:04:51.855Z,20.35
2018-01-22T15:07:19.363Z,23.67
2018-01-22T15:09:47.673Z,12.02
2018-01-22T15:12:15.508Z,12.30
2018-01-22T15:14:43.898Z,20.85
2018-01-22T15:17:11.476Z,19.75
2018-01-22T15:19:39.037Z,15.48
2018-01-22T15:22:06.549Z,18.30
2018-01-22T15:24:34.132Z,15.93
2018-01-22T15:27:02.418Z,20.75
2018-01-22T15:29:30.844Z,25.45
2018-01-22T15:31:58.397Z,12.57
2018-01-22T15:34:25.977Z,11.88
2018-01-22T15:36:53.506Z,17.70
2018-01-22T15:39:21.151Z,13.85
2018-01-22T15:41:48.716Z,16.48
2018-01-22T15:44:16.276Z,19.87
2018-01-22T15:46:43.791Z,24.70
2018-01-22T15:49:12.107Z,26.90
2018-01-22T15:51:39.637Z,20.12
2018-01-22T15:54:07.966Z,19.73
2018-01-22T15:56:35.776Z,24.87
2018-01-22T15:59:04.143Z,22.05
2018-01-22T16:01:31.777Z,18.30
2018-01-22T16:03:59.333Z,19.62
2018-01-22T16:06:26.874Z,23.35
2018-01-22T16:08:54.456Z,16.15
2018-01-22T16:11:21.972Z,17.50
2018-01-22T16:13:49.519Z,19.73
2018-01-22T16:16:17.126Z,15.48
2018-01-22T16:18:44.695Z,16.17
2018-01-22T16:21:12.220Z,23.50
2018-01-22T16:23:39.772Z,16.27
2018-01-22T16:26:07.285Z,21.37
2018-01-22T16:28:34.829Z,21.98
2018-01-22T16:31:02.466Z,16.67
2018-01-22T16:33:30.013Z,16.45
2018-01-22T16:35:57.548Z,20.48
2018-01-22T16:38:25.891Z,19.98
2018-01-22T16:40:54.462Z,15.82
2018-01-22T16:43:22.045Z,23.95
2018-01-22T16:45:49.589Z,27.37
2018-01-22T16:48:17.136Z,23.73
2018-01-22T16:50:44.712Z,15.40
2018-01-22T16:53:12.244Z,24.48
2018-01-22T16:55:39.765Z,21.87
2018-01-22T16:58:09.031Z,21.23
2018-01-22T17:00:36.614Z,20.83
2018-01-22T17:03:04.958Z,20.05
2018-01-22T17:05:32.592Z,24.60
2018-01-22T17:08:00.133Z,20.20
2018-01-22T17:10:27.665Z,29.15
2018-01-22T17:12:55.289Z,21.08
2018-01-22T17:15:22.836Z,26.80
2018-01-22T17:17:50.356Z,18.62
2018-01-22T17:20:18.707Z,23.85
2018-01-22T17:22:46.427Z,18.33
2018-01-22T17:25:14.048Z,21.83
2018-01-22T17:27:41.590Z,20.52
2018-01-22T17:30:09.242Z,18.12
2018-01-22T17:32:36.801Z,17.80
2018-01-22T17:35:04.327Z,21.75
2018-01-22T17:37:31.988Z,22.55
2018-01-22T17:39:59.608Z,17.55
2018-01-22T17:42:27.170Z,17.45
2018-01-22T17:44:55.496Z,22.13
2018-01-22T17:47:23.028Z,18.92
2018-01-22T17:49:51.425Z,30.70
2018-01-22T17:52:18.993Z,24.73
2018-01-22T17:54:46.602Z,32.00
2018-01-22T17:57:14.928Z,22.23
2018-01-22T17:59:42.490Z,25.60
2018-01-22T18:02:10.316Z,27.73
2018-01-22T18:04:38.687Z,15.18
2018-01-22T18:07:06.233Z,26.90
2018-01-22T18:09:33.804Z,21.05
2018-01-22T18:12:02.648Z,23.00
2018-01-22T18:14:30.284Z,20.85
2018-01-22T18:16:58.019Z,26.17
2018-01-22T18:19:25.587Z,20.90
2018-01-22T18:21:53.912Z,28.42
2018-01-22T18:24:21.471Z,26.75
2018-01-22T18:26:48.964Z,33.47
2018-01-22T18:29:16.528Z,25.77
2018-01-22T18:31:44.050Z,35.67
2018-01-22T18:34:11.614Z,34.45
2018-01-22T18:36:39.158Z,29.87
2018-01-22T18:39:06.699Z,34.20
2018-01-22T18:41:35.005Z,36.85
2018-01-22T18:44:02.589Z,33.97
2018-01-22T18:46:30.185Z,22.90
2018-01-22T18:48:58.500Z,29.10
2018-01-22T18:51:26.150Z,30.80
2018-01-22T18:53:53.746Z,31.60
2018-01-22T18:56:21.324Z,27.42
2018-01-22T18:58:50.371Z,32.10
2018-01-22T19:01:17.921Z,37.78
2018-01-22T19:03:45.623Z,32.80
2018-01-22T19:06:13.149Z,28.58
2018-01-22T19:08:40.674Z,28.92
2018-01-22T19:11:08.261Z,31.50
2018-01-22T19:13:35.945Z,29.15
2018-01-22T19:16:03.533Z,32.28
2018-01-22T19:18:31.135Z,25.60
2018-01-22T19:20:58.721Z,32.90
2018-01-22T19:23:26.263Z,34.45
2018-01-22T19:25:54.029Z,48.22
2018-01-22T19:28:21.554Z,38.15
2018-01-22T19:30:49.148Z,42.58
2018-01-22T19:33:16.681Z,32.83
2018-01-22T19:35:44.243Z,31.33
2018-01-22T19:38:11.779Z,35.00
2018-01-22T19:40:39.373Z,39.78
2018-01-22T19:43:07.762Z,37.17
2018-01-22T19:45:35.314Z,36.28
2018-01-22T19:48:02.895Z,33.17
2018-01-22T19:50:30.755Z,39.17
2018-01-22T19:52:58.270Z,38.00
2018-01-22T19:55:26.619Z,42.22
2018-01-22T19:57:54.238Z,39.97
2018-01-22T20:00:21.812Z,36.30
2018-01-22T20:02:49.505Z,51.10
2018-01-22T20:05:17.949Z,45.70
2018-01-22T20:07:45.514Z,32.95
2018-01-22T20:10:13.136Z,43.60
2018-01-22T20:12:41.542Z,39.47
2018-01-22T20:15:09.792Z,37.58
2018-01-22T20:17:38.066Z,34.38
2018-01-22T20:22:50.496Z,32.42
2018-01-22T20:25:23.338Z,33.08
2018-01-22T20:27:51.363Z,44.17
2018-01-22T20:30:18.930Z,39.53
2018-01-22T20:32:46.570Z,44.97
2018-01-22T20:35:14.873Z,31.55
2018-01-22T20:37:42.426Z,37.00
2018-01-22T20:40:10.008Z,31.92
2018-01-22T20:42:37.552Z,45.38
2018-01-22T20:45:06.975Z,49.28
2018-01-22T20:47:34.717Z,34.65
2018-01-22T20:50:02.266Z,45.83
2018-01-22T20:52:29.914Z,41.33
2018-01-22T20:54:58.348Z,48.20
2018-01-22T20:57:25.977Z,35.40
2018-01-22T20:59:53.533Z,38.40
2018-01-22T21:02:21.118Z,37.78
2018-01-22T21:04:48.662Z,43.33
2018-01-22T21:07:16.177Z,42.58
2018-01-22T21:09:44.503Z,37.85
2018-01-22T21:12:12.043Z,33.65
2018-01-22T21:14:39.598Z,35.58
2018-01-22T21:17:07.754Z,44.05
2018-01-22T21:19:36.138Z,37.17
2018-01-22T21:22:04.502Z,43.05
2018-01-22T21:24:32.073Z,55.83
2018-01-22T21:27:00.367Z,36.97
2018-01-22T21:29:27.899Z,35.95
2018-01-22T21:31:56.220Z,41.60
2018-01-22T21:34:23.764Z,31.23
2018-01-22T21:36:51.272Z,23.00
2018-01-22T21:39:18.883Z,38.95
2018-01-22T21:41:46.390Z,34.15
2018-01-22T21:44:14.711Z,27.92
2018-01-22T21:46:42.226Z,32.78
2018-01-22T21:49:09.761Z,26.65
2018-01-22T21:51:37.278Z,28.35
2018-01-22T21:54:05.621Z,36.88
2018-01-22T21:56:33.147Z,32.40
2018-01-22T21:59:00.648Z,33.35
2018-01-22T22:01:28.246Z,28.12
2018-01-22T22:03:55.777Z,35.25
2018-01-22T22:06:24.313Z,27.08
2018-01-22T22:08:51.977Z,34.42
2018-01-22T22:11:19.524Z,28.00
2018-01-22T22:13:47.058Z,34.65
2018-01-22T22:16:15.361Z,27.50
2018-01-22T22:18:42.938Z,27.87
2018-01-22T22:21:10.440Z,29.52
2018-01-22T22:23:38.793Z,30.77
2018-01-22T22:26:06.304Z,35.42
2018-01-22T22:28:33.852Z,35.33
2018-01-22T22:31:01.732Z,25.70
2018-01-22T22:33:29.299Z,34.25
2018-01-22T22:35:56.814Z,32.08
2018-01-22T22:38:24.359Z,27.65
2018-01-22T22:40:51.860Z,30.30
2018-01-22T22:43:19.437Z,26.10
2018-01-22T22:45:46.971Z,31.48
2018-01-22T22:48:15.284Z,37.30
2018-01-22T22:50:42.796Z,33.92
2018-01-22T22:53:11.094Z,29.30
2018-01-22T22:55:38.596Z,31.20
2018-01-22T22:58:06.123Z,27.58
2018-01-22T23:00:33.654Z,30.50
2018-01-22T23:03:01.962Z,32.22
2018-01-22T23:05:29.462Z,30.17
2018-01-22T23:07:57.074Z,24.87
2018-01-22T23:10:24.583Z,32.03
2018-01-22T23:12:52.120Z,30.37
2018-01-22T23:15:19.754Z,26.15
2018-01-22T23:17:47.398Z,27.70
2018-01-22T23:20:14.994Z,21.62
2018-01-22T23:22:42.573Z,25.62
2018-01-22T23:25:10.147Z,29.70
2018-01-22T23:27:37.755Z,36.30
2018-01-22T23:30:05.334Z,26.85
2018-01-22T23:32:32.896Z,23.33
2018-01-22T23:35:00.539Z,19.45
2018-01-22T23:37:28.103Z,25.80
2018-01-22T23:39:55.647Z,33.38
2018-01-22T23:42:23.206Z,20.40
2018-01-22T23:44:50.796Z,32.90
2018-01-22T23:47:18.423Z,31.05
2018-01-22T23:49:46.201Z,28.15
2018-01-22T23:52:13.867Z,30.42
2018-01-22T23:54:41.374Z,36.58
2018-01-22T23:57:08.930Z,34.95
2018-01-22T23:59:36.511Z,35.42
